Charlson, North Dakota
Current Conditions -  °F | °C
As of 7:55 PM on Saturday 22 Nov 2014 (Local Time) from K08D Reporting Station
Clear Clear  
Wind Chill: 27°   Ceiling: Unl
Heat Index: 32°   Visibility: 10mi
Dew Point: 32°   Wind: 5mph
Humidity: 100%   Direction: 230°SW
Pressure: 29.27"   Gusts: NA
Location:  47.9603°N, 102.491°W
Report Text: K08D 230155Z AUTO 23004KT 10SM CLR 00/00 A2927 RMK AO2
Loading
Personal Weather Stations






























Interactive Weather Map New forecast layout! Learn more

10-Day Weather Forecast

Advertisements
Track Severe Weather on mobile